sensor_id;sensor_type;location;lat;lon;timestamp;temperature;humidity
43049;DHT22;28673;44.412;11.918;2023-04-06T00:01:56;4.00;90.80
43049;DHT22;28673;44.412;11.918;2023-04-06T00:04:22;3.90;90.70
43049;DHT22;28673;44.412;11.918;2023-04-06T00:06:47;3.90;90.40
43049;DHT22;28673;44.412;11.918;2023-04-06T00:09:13;3.90;90.30
43049;DHT22;28673;44.412;11.918;2023-04-06T00:11:40;3.90;90.40
43049;DHT22;28673;44.412;11.918;2023-04-06T00:14:06;3.90;90.30
43049;DHT22;28673;44.412;11.918;2023-04-06T00:16:32;4.00;90.30
43049;DHT22;28673;44.412;11.918;2023-04-06T00:18:58;4.00;90.30
43049;DHT22;28673;44.412;11.918;2023-04-06T00:21:24;4.00;90.20
43049;DHT22;28673;44.412;11.918;2023-04-06T00:23:51;4.10;90.20
43049;DHT22;28673;44.412;11.918;2023-04-06T00:26:17;4.10;90.20
43049;DHT22;28673;44.412;11.918;2023-04-06T00:28:46;4.10;90.20
43049;DHT22;28673;44.412;11.918;2023-04-06T00:31:12;4.10;90.10
43049;DHT22;28673;44.412;11.918;2023-04-06T00:33:38;4.10;90.10
43049;DHT22;28673;44.412;11.918;2023-04-06T00:36:04;4.10;90.10
43049;DHT22;28673;44.412;11.918;2023-04-06T00:38:31;4.10;90.40
43049;DHT22;28673;44.412;11.918;2023-04-06T00:40:57;4.20;90.20
43049;DHT22;28673;44.412;11.918;2023-04-06T00:43:26;4.10;90.10
43049;DHT22;28673;44.412;11.918;2023-04-06T00:45:52;4.20;90.30
43049;DHT22;28673;44.412;11.918;2023-04-06T00:48:18;4.10;90.30
43049;DHT22;28673;44.412;11.918;2023-04-06T00:50:44;4.10;90.20
43049;DHT22;28673;44.412;11.918;2023-04-06T00:53:09;4.10;90.20
43049;DHT22;28673;44.412;11.918;2023-04-06T00:55:35;4.00;90.20
43049;DHT22;28673;44.412;11.918;2023-04-06T00:58:02;4.00;90.30
43049;DHT22;28673;44.412;11.918;2023-04-06T01:00:33;4.00;90.30
43049;DHT22;28673;44.412;11.918;2023-04-06T01:03:00;4.00;90.30
43049;DHT22;28673;44.412;11.918;2023-04-06T01:05:35;4.10;90.30
43049;DHT22;28673;44.412;11.918;2023-04-06T01:08:08;4.00;90.30
43049;DHT22;28673;44.412;11.918;2023-04-06T01:10:34;4.00;90.30
43049;DHT22;28673;44.412;11.918;2023-04-06T01:13:22;4.00;90.30
43049;DHT22;28673;44.412;11.918;2023-04-06T01:15:52;4.00;90.30
43049;DHT22;28673;44.412;11.918;2023-04-06T01:18:27;4.00;90.60
43049;DHT22;28673;44.412;11.918;2023-04-06T01:21:00;4.00;90.30
43049;DHT22;28673;44.412;11.918;2023-04-06T01:23:27;4.00;90.30
43049;DHT22;28673;44.412;11.918;2023-04-06T01:25:53;4.00;90.30
43049;DHT22;28673;44.412;11.918;2023-04-06T01:28:19;3.90;90.40
43049;DHT22;28673;44.412;11.918;2023-04-06T01:30:57;3.90;90.40
43049;DHT22;28673;44.412;11.918;2023-04-06T01:33:43;3.90;90.40
43049;DHT22;28673;44.412;11.918;2023-04-06T01:36:13;3.90;90.40
43049;DHT22;28673;44.412;11.918;2023-04-06T01:38:39;3.90;90.50
43049;DHT22;28673;44.412;11.918;2023-04-06T01:41:05;3.90;90.50
43049;DHT22;28673;44.412;11.918;2023-04-06T01:43:43;3.80;90.50
43049;DHT22;28673;44.412;11.918;2023-04-06T01:46:10;3.80;90.50
43049;DHT22;28673;44.412;11.918;2023-04-06T01:48:39;3.80;90.50
43049;DHT22;28673;44.412;11.918;2023-04-06T01:51:16;3.80;90.80
43049;DHT22;28673;44.412;11.918;2023-04-06T01:53:51;3.80;90.60
43049;DHT22;28673;44.412;11.918;2023-04-06T01:56:20;3.80;90.60
43049;DHT22;28673;44.412;11.918;2023-04-06T01:58:55;3.80;90.70
43049;DHT22;28673;44.412;11.918;2023-04-06T02:01:27;3.80;90.70
43049;DHT22;28673;44.412;11.918;2023-04-06T02:03:56;3.80;90.70
43049;DHT22;28673;44.412;11.918;2023-04-06T02:06:23;3.80;90.80
43049;DHT22;28673;44.412;11.918;2023-04-06T02:08:49;3.70;90.70
43049;DHT22;28673;44.412;11.918;2023-04-06T02:11:15;3.70;90.80
43049;DHT22;28673;44.412;11.918;2023-04-06T02:13:50;3.70;90.80
43049;DHT22;28673;44.412;11.918;2023-04-06T02:16:16;3.70;90.90
43049;DHT22;28673;44.412;11.918;2023-04-06T02:18:44;3.70;90.90
43049;DHT22;28673;44.412;11.918;2023-04-06T02:21:11;3.60;90.90
43049;DHT22;28673;44.412;11.918;2023-04-06T02:23:36;3.60;90.90
43049;DHT22;28673;44.412;11.918;2023-04-06T02:26:02;3.60;90.90
43049;DHT22;28673;44.412;11.918;2023-04-06T02:28:28;3.60;90.90
43049;DHT22;28673;44.412;11.918;2023-04-06T02:30:54;3.60;91.00
43049;DHT22;28673;44.412;11.918;2023-04-06T02:33:24;3.60;91.00
43049;DHT22;28673;44.412;11.918;2023-04-06T02:35:51;3.50;91.00
43049;DHT22;28673;44.412;11.918;2023-04-06T02:38:17;3.60;91.00
43049;DHT22;28673;44.412;11.918;2023-04-06T02:40:44;3.50;91.10
43049;DHT22;28673;44.412;11.918;2023-04-06T02:43:23;3.50;91.10
43049;DHT22;28673;44.412;11.918;2023-04-06T02:45:55;3.50;91.10
43049;DHT22;28673;44.412;11.918;2023-04-06T02:48:22;3.50;91.10
43049;DHT22;28673;44.412;11.918;2023-04-06T02:50:48;3.50;91.20
43049;DHT22;28673;44.412;11.918;2023-04-06T02:53:15;3.50;91.40
43049;DHT22;28673;44.412;11.918;2023-04-06T02:55:41;3.40;91.90
43049;DHT22;28673;44.412;11.918;2023-04-06T02:58:07;3.30;91.40
43049;DHT22;28673;44.412;11.918;2023-04-06T03:00:42;3.30;91.60
43049;DHT22;28673;44.412;11.918;2023-04-06T03:03:09;3.30;91.60
43049;DHT22;28673;44.412;11.918;2023-04-06T03:05:35;3.20;91.70
43049;DHT22;28673;44.412;11.918;2023-04-06T03:08:01;3.20;91.70
43049;DHT22;28673;44.412;11.918;2023-04-06T03:10:41;3.20;91.90
43049;DHT22;28673;44.412;11.918;2023-04-06T03:13:07;3.20;91.80
43049;DHT22;28673;44.412;11.918;2023-04-06T03:15:51;3.10;92.00
43049;DHT22;28673;44.412;11.918;2023-04-06T03:18:23;3.10;92.00
43049;DHT22;28673;44.412;11.918;2023-04-06T03:20:51;3.10;91.90
43049;DHT22;28673;44.412;11.918;2023-04-06T03:23:20;3.10;92.10
43049;DHT22;28673;44.412;11.918;2023-04-06T03:25:50;3.10;92.00
43049;DHT22;28673;44.412;11.918;2023-04-06T03:28:19;3.10;92.10
43049;DHT22;28673;44.412;11.918;2023-04-06T03:30:52;3.20;92.00
43049;DHT22;28673;44.412;11.918;2023-04-06T03:33:27;3.20;91.90
43049;DHT22;28673;44.412;11.918;2023-04-06T03:35:54;3.20;91.90
43049;DHT22;28673;44.412;11.918;2023-04-06T03:38:23;3.20;91.80
43049;DHT22;28673;44.412;11.918;2023-04-06T03:40:49;3.20;91.90
43049;DHT22;28673;44.412;11.918;2023-04-06T03:43:20;3.20;91.80
43049;DHT22;28673;44.412;11.918;2023-04-06T03:45:46;3.20;91.80
43049;DHT22;28673;44.412;11.918;2023-04-06T03:48:13;3.30;91.80
43049;DHT22;28673;44.412;11.918;2023-04-06T03:50:39;3.20;91.80
43049;DHT22;28673;44.412;11.918;2023-04-06T03:53:05;3.20;91.80
43049;DHT22;28673;44.412;11.918;2023-04-06T03:55:31;3.20;91.80
43049;DHT22;28673;44.412;11.918;2023-04-06T03:57:57;3.20;91.90
43049;DHT22;28673;44.412;11.918;2023-04-06T04:00:25;3.20;91.90
43049;DHT22;28673;44.412;11.918;2023-04-06T04:02:50;3.20;91.90
43049;DHT22;28673;44.412;11.918;2023-04-06T04:05:16;3.20;91.90
43049;DHT22;28673;44.412;11.918;2023-04-06T04:07:42;3.20;91.90
43049;DHT22;28673;44.412;11.918;2023-04-06T04:10:10;3.20;91.90
43049;DHT22;28673;44.412;11.918;2023-04-06T04:12:36;3.10;91.90
43049;DHT22;28673;44.412;11.918;2023-04-06T04:15:02;3.10;91.90
43049;DHT22;28673;44.412;11.918;2023-04-06T04:17:28;3.10;91.90
43049;DHT22;28673;44.412;11.918;2023-04-06T04:19:54;3.10;92.00
43049;DHT22;28673;44.412;11.918;2023-04-06T04:22:20;3.10;92.00
43049;DHT22;28673;44.412;11.918;2023-04-06T04:24:46;3.10;92.00
43049;DHT22;28673;44.412;11.918;2023-04-06T04:27:12;3.10;92.00
43049;DHT22;28673;44.412;11.918;2023-04-06T04:29:39;3.00;92.00
43049;DHT22;28673;44.412;11.918;2023-04-06T04:32:08;3.10;92.00
43049;DHT22;28673;44.412;11.918;2023-04-06T04:34:34;3.00;92.00
43049;DHT22;28673;44.412;11.918;2023-04-06T04:37:03;3.00;92.00
43049;DHT22;28673;44.412;11.918;2023-04-06T04:39:47;3.00;92.10
43049;DHT22;28673;44.412;11.918;2023-04-06T04:42:13;3.00;92.10
43049;DHT22;28673;44.412;11.918;2023-04-06T04:44:45;3.00;92.10
43049;DHT22;28673;44.412;11.918;2023-04-06T04:47:11;2.90;92.10
43049;DHT22;28673;44.412;11.918;2023-04-06T04:49:44;3.00;92.10
43049;DHT22;28673;44.412;11.918;2023-04-06T04:52:14;2.90;92.10
43049;DHT22;28673;44.412;11.918;2023-04-06T04:54:55;2.90;92.10
43049;DHT22;28673;44.412;11.918;2023-04-06T04:57:25;2.90;92.10
43049;DHT22;28673;44.412;11.918;2023-04-06T04:59:52;2.90;92.10
43049;DHT22;28673;44.412;11.918;2023-04-06T05:02:18;2.90;92.10
43049;DHT22;28673;44.412;11.918;2023-04-06T05:05:08;2.90;92.10
43049;DHT22;28673;44.412;11.918;2023-04-06T05:07:35;2.90;92.20
43049;DHT22;28673;44.412;11.918;2023-04-06T05:10:01;2.80;92.20
43049;DHT22;28673;44.412;11.918;2023-04-06T05:12:32;2.80;92.20
43049;DHT22;28673;44.412;11.918;2023-04-06T05:15:07;2.80;92.60
43049;DHT22;28673;44.412;11.918;2023-04-06T05:17:33;2.70;92.50
43049;DHT22;28673;44.412;11.918;2023-04-06T05:20:03;2.70;92.80
43049;DHT22;28673;44.412;11.918;2023-04-06T05:22:33;2.60;92.80
43049;DHT22;28673;44.412;11.918;2023-04-06T05:25:05;2.60;92.80
43049;DHT22;28673;44.412;11.918;2023-04-06T05:27:34;2.60;93.00
43049;DHT22;28673;44.412;11.918;2023-04-06T05:30:09;2.60;93.20
43049;DHT22;28673;44.412;11.918;2023-04-06T05:32:40;2.50;93.90
43049;DHT22;28673;44.412;11.918;2023-04-06T05:35:07;2.50;93.80
43049;DHT22;28673;44.412;11.918;2023-04-06T05:37:33;2.50;93.30
43049;DHT22;28673;44.412;11.918;2023-04-06T05:40:00;2.50;93.10
43049;DHT22;28673;44.412;11.918;2023-04-06T05:42:26;2.50;93.60
43049;DHT22;28673;44.412;11.918;2023-04-06T05:44:56;2.60;93.40
43049;DHT22;28673;44.412;11.918;2023-04-06T05:47:22;2.70;93.50
43049;DHT22;28673;44.412;11.918;2023-04-06T05:49:54;2.70;93.60
43049;DHT22;28673;44.412;11.918;2023-04-06T05:52:31;2.70;93.40
43049;DHT22;28673;44.412;11.918;2023-04-06T05:54:58;2.80;93.50
43049;DHT22;28673;44.412;11.918;2023-04-06T05:57:25;2.90;93.40
43049;DHT22;28673;44.412;11.918;2023-04-06T05:59:51;2.80;94.40
43049;DHT22;28673;44.412;11.918;2023-04-06T06:02:18;2.90;94.20
43049;DHT22;28673;44.412;11.918;2023-04-06T06:04:48;2.90;94.10
43049;DHT22;28673;44.412;11.918;2023-04-06T06:07:15;2.90;94.40
43049;DHT22;28673;44.412;11.918;2023-04-06T06:09:46;3.00;94.50
43049;DHT22;28673;44.412;11.918;2023-04-06T06:12:26;3.00;94.20
43049;DHT22;28673;44.412;11.918;2023-04-06T06:14:53;3.00;94.30
43049;DHT22;28673;44.412;11.918;2023-04-06T06:17:22;3.10;94.50
43049;DHT22;28673;44.412;11.918;2023-04-06T06:19:48;3.10;94.40
43049;DHT22;28673;44.412;11.918;2023-04-06T06:22:15;3.20;94.20
43049;DHT22;28673;44.412;11.918;2023-04-06T06:24:44;3.20;94.30
43049;DHT22;28673;44.412;11.918;2023-04-06T06:27:11;3.30;94.10
43049;DHT22;28673;44.412;11.918;2023-04-06T06:29:38;3.40;94.70
43049;DHT22;28673;44.412;11.918;2023-04-06T06:32:03;3.40;94.10
43049;DHT22;28673;44.412;11.918;2023-04-06T06:34:30;3.50;94.00
43049;DHT22;28673;44.412;11.918;2023-04-06T06:36:58;3.60;93.90
43049;DHT22;28673;44.412;11.918;2023-04-06T06:39:23;3.70;93.60
43049;DHT22;28673;44.412;11.918;2023-04-06T06:41:50;3.70;93.70
43049;DHT22;28673;44.412;11.918;2023-04-06T06:44:20;3.80;93.60
43049;DHT22;28673;44.412;11.918;2023-04-06T06:46:47;3.90;93.50
43049;DHT22;28673;44.412;11.918;2023-04-06T06:49:13;4.00;93.30
43049;DHT22;28673;44.412;11.918;2023-04-06T06:51:40;4.00;93.20
43049;DHT22;28673;44.412;11.918;2023-04-06T06:54:06;4.20;93.20
43049;DHT22;28673;44.412;11.918;2023-04-06T06:56:32;4.20;93.00
43049;DHT22;28673;44.412;11.918;2023-04-06T06:58:58;4.30;92.90
43049;DHT22;28673;44.412;11.918;2023-04-06T07:01:24;4.40;92.80
43049;DHT22;28673;44.412;11.918;2023-04-06T07:03:50;4.50;92.70
43049;DHT22;28673;44.412;11.918;2023-04-06T07:06:16;4.50;92.40
43049;DHT22;28673;44.412;11.918;2023-04-06T07:08:42;4.60;92.40
43049;DHT22;28673;44.412;11.918;2023-04-06T07:11:08;4.70;92.50
43049;DHT22;28673;44.412;11.918;2023-04-06T07:13:34;4.80;92.70
43049;DHT22;28673;44.412;11.918;2023-04-06T07:16:01;4.90;92.90
43049;DHT22;28673;44.412;11.918;2023-04-06T07:18:27;5.00;92.70
43049;DHT22;28673;44.412;11.918;2023-04-06T07:20:53;5.10;92.50
43049;DHT22;28673;44.412;11.918;2023-04-06T07:23:19;5.30;92.60
43049;DHT22;28673;44.412;11.918;2023-04-06T07:25:45;5.40;92.60
43049;DHT22;28673;44.412;11.918;2023-04-06T07:28:11;5.50;92.50
43049;DHT22;28673;44.412;11.918;2023-04-06T07:30:38;5.60;92.40
43049;DHT22;28673;44.412;11.918;2023-04-06T07:33:05;5.80;92.10
43049;DHT22;28673;44.412;11.918;2023-04-06T07:35:32;5.90;92.30
43049;DHT22;28673;44.412;11.918;2023-04-06T07:37:58;6.00;92.40
43049;DHT22;28673;44.412;11.918;2023-04-06T07:40:24;6.10;92.30
43049;DHT22;28673;44.412;11.918;2023-04-06T07:42:52;6.30;92.30
43049;DHT22;28673;44.412;11.918;2023-04-06T07:45:18;6.40;91.70
43049;DHT22;28673;44.412;11.918;2023-04-06T07:47:46;6.50;91.50
43049;DHT22;28673;44.412;11.918;2023-04-06T07:50:12;6.70;91.30
43049;DHT22;28673;44.412;11.918;2023-04-06T07:52:38;6.80;88.80
43049;DHT22;28673;44.412;11.918;2023-04-06T07:55:06;6.90;90.30
43049;DHT22;28673;44.412;11.918;2023-04-06T07:57:35;7.10;89.50
43049;DHT22;28673;44.412;11.918;2023-04-06T08:00:01;7.20;89.10
43049;DHT22;28673;44.412;11.918;2023-04-06T08:02:27;7.30;89.20
43049;DHT22;28673;44.412;11.918;2023-04-06T08:04:52;7.50;89.30
43049;DHT22;28673;44.412;11.918;2023-04-06T08:07:18;7.60;89.60
43049;DHT22;28673;44.412;11.918;2023-04-06T08:09:44;7.70;88.70
43049;DHT22;28673;44.412;11.918;2023-04-06T08:12:10;7.90;86.90
43049;DHT22;28673;44.412;11.918;2023-04-06T08:14:36;8.00;87.00
43049;DHT22;28673;44.412;11.918;2023-04-06T08:17:02;8.10;86.40
43049;DHT22;28673;44.412;11.918;2023-04-06T08:19:28;8.30;85.90
43049;DHT22;28673;44.412;11.918;2023-04-06T08:21:53;8.40;84.40
43049;DHT22;28673;44.412;11.918;2023-04-06T08:24:19;8.60;86.30
43049;DHT22;28673;44.412;11.918;2023-04-06T08:26:45;8.80;86.50
43049;DHT22;28673;44.412;11.918;2023-04-06T08:29:11;9.00;85.80
43049;DHT22;28673;44.412;11.918;2023-04-06T08:31:37;9.20;85.60
43049;DHT22;28673;44.412;11.918;2023-04-06T08:34:04;9.40;85.60
43049;DHT22;28673;44.412;11.918;2023-04-06T08:36:33;9.50;83.90
43049;DHT22;28673;44.412;11.918;2023-04-06T08:39:00;9.60;83.00
43049;DHT22;28673;44.412;11.918;2023-04-06T08:41:26;9.80;82.40
43049;DHT22;28673;44.412;11.918;2023-04-06T08:43:58;10.00;82.40
43049;DHT22;28673;44.412;11.918;2023-04-06T08:46:24;10.20;82.40
43049;DHT22;28673;44.412;11.918;2023-04-06T08:48:56;10.50;80.20
43049;DHT22;28673;44.412;11.918;2023-04-06T08:51:23;10.80;79.90
43049;DHT22;28673;44.412;11.918;2023-04-06T08:53:53;11.10;80.40
43049;DHT22;28673;44.412;11.918;2023-04-06T08:56:21;11.40;76.40
43049;DHT22;28673;44.412;11.918;2023-04-06T08:58:50;11.70;79.00
43049;DHT22;28673;44.412;11.918;2023-04-06T09:01:21;12.10;77.40
43049;DHT22;28673;44.412;11.918;2023-04-06T09:03:49;12.40;77.10
43049;DHT22;28673;44.412;11.918;2023-04-06T09:06:15;12.70;76.00
43049;DHT22;28673;44.412;11.918;2023-04-06T09:08:41;13.10;76.00
43049;DHT22;28673;44.412;11.918;2023-04-06T09:11:10;13.40;74.20
43049;DHT22;28673;44.412;11.918;2023-04-06T09:13:56;13.70;74.30
43049;DHT22;28673;44.412;11.918;2023-04-06T09:16:23;14.00;67.50
43049;DHT22;28673;44.412;11.918;2023-04-06T09:18:49;14.30;72.20
43049;DHT22;28673;44.412;11.918;2023-04-06T09:21:19;14.50;71.60
43049;DHT22;28673;44.412;11.918;2023-04-06T09:23:45;14.70;68.80
43049;DHT22;28673;44.412;11.918;2023-04-06T09:26:13;14.90;69.40
43049;DHT22;28673;44.412;11.918;2023-04-06T09:28:48;15.10;67.20
43049;DHT22;28673;44.412;11.918;2023-04-06T09:31:15;15.20;68.00
43049;DHT22;28673;44.412;11.918;2023-04-06T09:33:45;15.40;69.70
43049;DHT22;28673;44.412;11.918;2023-04-06T09:36:12;15.70;67.10
43049;DHT22;28673;44.412;11.918;2023-04-06T09:38:54;15.90;65.20
43049;DHT22;28673;44.412;11.918;2023-04-06T09:41:31;15.90;62.70
43049;DHT22;28673;44.412;11.918;2023-04-06T09:44:08;16.10;65.40
43049;DHT22;28673;44.412;11.918;2023-04-06T09:46:41;16.40;63.10
43049;DHT22;28673;44.412;11.918;2023-04-06T09:49:08;16.60;65.90
43049;DHT22;28673;44.412;11.918;2023-04-06T09:51:41;16.90;65.90
43049;DHT22;28673;44.412;11.918;2023-04-06T09:54:11;17.20;64.70
43049;DHT22;28673;44.412;11.918;2023-04-06T09:56:45;17.40;64.70
43049;DHT22;28673;44.412;11.918;2023-04-06T10:01:58;17.80;62.70
43049;DHT22;28673;44.412;11.918;2023-04-06T10:04:43;17.90;58.90
43049;DHT22;28673;44.412;11.918;2023-04-06T10:07:12;17.80;58.70
43049;DHT22;28673;44.412;11.918;2023-04-06T10:09:38;17.80;61.70
43049;DHT22;28673;44.412;11.918;2023-04-06T10:12:06;18.00;61.80
43049;DHT22;28673;44.412;11.918;2023-04-06T10:14:37;18.20;62.80
43049;DHT22;28673;44.412;11.918;2023-04-06T10:17:07;18.40;58.20
43049;DHT22;28673;44.412;11.918;2023-04-06T10:19:52;18.50;60.90
43049;DHT22;28673;44.412;11.918;2023-04-06T10:22:35;18.60;61.30
43049;DHT22;28673;44.412;11.918;2023-04-06T10:25:02;18.80;60.50
43049;DHT22;28673;44.412;11.918;2023-04-06T10:27:29;19.00;59.90
43049;DHT22;28673;44.412;11.918;2023-04-06T10:30:04;19.10;59.40
43049;DHT22;28673;44.412;11.918;2023-04-06T10:32:34;19.30;59.40
43049;DHT22;28673;44.412;11.918;2023-04-06T10:35:19;19.40;59.70
43049;DHT22;28673;44.412;11.918;2023-04-06T10:38:02;19.60;60.00
43049;DHT22;28673;44.412;11.918;2023-04-06T10:40:29;19.90;58.30
43049;DHT22;28673;44.412;11.918;2023-04-06T10:43:10;20.00;59.50
43049;DHT22;28673;44.412;11.918;2023-04-06T10:45:36;20.20;55.90
43049;DHT22;28673;44.412;11.918;2023-04-06T10:48:14;20.10;57.80
43049;DHT22;28673;44.412;11.918;2023-04-06T10:50:42;20.00;57.60
43049;DHT22;28673;44.412;11.918;2023-04-06T10:53:09;20.20;57.00
43049;DHT22;28673;44.412;11.918;2023-04-06T10:55:39;20.20;55.00
43049;DHT22;28673;44.412;11.918;2023-04-06T10:58:09;20.20;55.80
43049;DHT22;28673;44.412;11.918;2023-04-06T11:00:35;20.40;57.00
43049;DHT22;28673;44.412;11.918;2023-04-06T11:03:08;20.50;57.00
43049;DHT22;28673;44.412;11.918;2023-04-06T11:05:35;20.80;57.70
43049;DHT22;28673;44.412;11.918;2023-04-06T11:08:01;20.90;56.90
43049;DHT22;28673;44.412;11.918;2023-04-06T11:10:27;21.00;56.80
43049;DHT22;28673;44.412;11.918;2023-04-06T11:12:54;21.10;55.80
43049;DHT22;28673;44.412;11.918;2023-04-06T11:15:20;21.30;55.90
43049;DHT22;28673;44.412;11.918;2023-04-06T11:17:46;21.50;55.70
43049;DHT22;28673;44.412;11.918;2023-04-06T11:20:12;21.80;55.90
43049;DHT22;28673;44.412;11.918;2023-04-06T11:22:51;21.80;54.70
43049;DHT22;28673;44.412;11.918;2023-04-06T11:25:18;21.70;54.10
43049;DHT22;28673;44.412;11.918;2023-04-06T11:27:45;21.70;54.50
43049;DHT22;28673;44.412;11.918;2023-04-06T11:30:12;21.60;54.50
43049;DHT22;28673;44.412;11.918;2023-04-06T11:32:44;21.50;54.80
43049;DHT22;28673;44.412;11.918;2023-04-06T11:35:23;21.50;55.20
43049;DHT22;28673;44.412;11.918;2023-04-06T11:37:49;21.50;52.70
43049;DHT22;28673;44.412;11.918;2023-04-06T11:40:21;21.60;55.10
43049;DHT22;28673;44.412;11.918;2023-04-06T11:42:52;21.90;53.40
43049;DHT22;28673;44.412;11.918;2023-04-06T11:45:19;21.90;53.80
43049;DHT22;28673;44.412;11.918;2023-04-06T11:47:45;22.00;53.90
43049;DHT22;28673;44.412;11.918;2023-04-06T11:50:14;22.00;53.80
43049;DHT22;28673;44.412;11.918;2023-04-06T11:52:43;21.80;53.80
43049;DHT22;28673;44.412;11.918;2023-04-06T11:55:19;21.90;53.40
43049;DHT22;28673;44.412;11.918;2023-04-06T11:57:51;21.90;53.00
43049;DHT22;28673;44.412;11.918;2023-04-06T12:00:18;22.00;53.80
43049;DHT22;28673;44.412;11.918;2023-04-06T12:02:48;22.10;53.40
43049;DHT22;28673;44.412;11.918;2023-04-06T12:05:14;22.20;53.10
43049;DHT22;28673;44.412;11.918;2023-04-06T12:07:40;22.40;53.60
43049;DHT22;28673;44.412;11.918;2023-04-06T12:10:06;22.40;53.00
43049;DHT22;28673;44.412;11.918;2023-04-06T12:12:32;22.50;53.00
43049;DHT22;28673;44.412;11.918;2023-04-06T12:14:58;22.60;52.80
43049;DHT22;28673;44.412;11.918;2023-04-06T12:17:25;22.50;52.70
43049;DHT22;28673;44.412;11.918;2023-04-06T12:19:51;22.50;52.70
43049;DHT22;28673;44.412;11.918;2023-04-06T12:22:17;21.90;50.80
43049;DHT22;28673;44.412;11.918;2023-04-06T12:24:44;21.60;52.10
43049;DHT22;28673;44.412;11.918;2023-04-06T12:27:10;21.60;53.10
43049;DHT22;28673;44.412;11.918;2023-04-06T12:29:37;21.90;53.50
43049;DHT22;28673;44.412;11.918;2023-04-06T12:32:07;22.20;52.30
43049;DHT22;28673;44.412;11.918;2023-04-06T12:34:34;22.10;51.10
43049;DHT22;28673;44.412;11.918;2023-04-06T12:37:03;21.80;51.70
43049;DHT22;28673;44.412;11.918;2023-04-06T12:39:32;21.80;51.40
43049;DHT22;28673;44.412;11.918;2023-04-06T12:42:01;21.80;52.60
43049;DHT22;28673;44.412;11.918;2023-04-06T12:44:28;22.00;52.40
43049;DHT22;28673;44.412;11.918;2023-04-06T12:46:58;22.10;52.50
43049;DHT22;28673;44.412;11.918;2023-04-06T12:49:32;22.30;53.30
43049;DHT22;28673;44.412;11.918;2023-04-06T12:52:04;22.60;53.00
43049;DHT22;28673;44.412;11.918;2023-04-06T12:54:31;22.50;51.20
43049;DHT22;28673;44.412;11.918;2023-04-06T12:57:06;22.50;51.80
43049;DHT22;28673;44.412;11.918;2023-04-06T12:59:32;22.70;52.20
43049;DHT22;28673;44.412;11.918;2023-04-06T13:02:01;22.90;52.40
43049;DHT22;28673;44.412;11.918;2023-04-06T13:04:26;23.00;51.40
43049;DHT22;28673;44.412;11.918;2023-04-06T13:06:52;23.10;52.40
43049;DHT22;28673;44.412;11.918;2023-04-06T13:09:18;23.00;51.90
43049;DHT22;28673;44.412;11.918;2023-04-06T13:11:44;23.20;52.00
43049;DHT22;28673;44.412;11.918;2023-04-06T13:14:11;23.30;52.40
43049;DHT22;28673;44.412;11.918;2023-04-06T13:16:37;23.40;52.80
43049;DHT22;28673;44.412;11.918;2023-04-06T13:19:03;23.20;51.00
43049;DHT22;28673;44.412;11.918;2023-04-06T13:21:29;23.10;51.00
43049;DHT22;28673;44.412;11.918;2023-04-06T13:23:55;23.00;50.80
43049;DHT22;28673;44.412;11.918;2023-04-06T13:26:21;23.00;50.50
43049;DHT22;28673;44.412;11.918;2023-04-06T13:28:47;22.80;50.30
43049;DHT22;28673;44.412;11.918;2023-04-06T13:31:13;22.70;51.20
43049;DHT22;28673;44.412;11.918;2023-04-06T13:33:39;22.70;50.90
43049;DHT22;28673;44.412;11.918;2023-04-06T13:36:07;22.50;50.60
43049;DHT22;28673;44.412;11.918;2023-04-06T13:38:33;22.60;51.00
43049;DHT22;28673;44.412;11.918;2023-04-06T13:41:00;22.60;51.70
43049;DHT22;28673;44.412;11.918;2023-04-06T13:43:25;22.70;52.00
43049;DHT22;28673;44.412;11.918;2023-04-06T13:45:53;22.70;51.80
43049;DHT22;28673;44.412;11.918;2023-04-06T13:48:23;22.70;51.70
43049;DHT22;28673;44.412;11.918;2023-04-06T13:50:51;22.70;50.60
43049;DHT22;28673;44.412;11.918;2023-04-06T13:53:17;22.70;51.10
43049;DHT22;28673;44.412;11.918;2023-04-06T13:55:47;22.60;51.10
43049;DHT22;28673;44.412;11.918;2023-04-06T13:58:17;22.60;50.80
43049;DHT22;28673;44.412;11.918;2023-04-06T14:00:43;22.70;51.40
43049;DHT22;28673;44.412;11.918;2023-04-06T14:03:09;22.70;51.10
43049;DHT22;28673;44.412;11.918;2023-04-06T14:05:35;22.90;51.10
43049;DHT22;28673;44.412;11.918;2023-04-06T14:08:01;23.00;49.60
43049;DHT22;28673;44.412;11.918;2023-04-06T14:10:30;23.00;50.10
43049;DHT22;28673;44.412;11.918;2023-04-06T14:12:56;22.90;50.10
43049;DHT22;28673;44.412;11.918;2023-04-06T14:15:23;23.00;50.60
43049;DHT22;28673;44.412;11.918;2023-04-06T14:17:49;23.10;51.40
43049;DHT22;28673;44.412;11.918;2023-04-06T14:20:16;23.10;51.20
43049;DHT22;28673;44.412;11.918;2023-04-06T14:22:41;23.00;51.70
43049;DHT22;28673;44.412;11.918;2023-04-06T14:25:10;23.00;51.40
43049;DHT22;28673;44.412;11.918;2023-04-06T14:27:38;22.90;51.40
43049;DHT22;28673;44.412;11.918;2023-04-06T14:30:05;22.80;51.00
43049;DHT22;28673;44.412;11.918;2023-04-06T14:32:31;22.70;50.50
43049;DHT22;28673;44.412;11.918;2023-04-06T14:34:58;22.70;51.50
43049;DHT22;28673;44.412;11.918;2023-04-06T14:37:23;22.70;51.60
43049;DHT22;28673;44.412;11.918;2023-04-06T14:39:49;22.60;51.30
43049;DHT22;28673;44.412;11.918;2023-04-06T14:42:15;22.60;52.20
43049;DHT22;28673;44.412;11.918;2023-04-06T14:44:41;22.60;51.80
43049;DHT22;28673;44.412;11.918;2023-04-06T14:47:09;22.40;51.60
43049;DHT22;28673;44.412;11.918;2023-04-06T14:49:36;22.20;51.10
43049;DHT22;28673;44.412;11.918;2023-04-06T14:52:02;22.10;52.10
43049;DHT22;28673;44.412;11.918;2023-04-06T14:54:28;21.80;52.40
43049;DHT22;28673;44.412;11.918;2023-04-06T14:56:54;21.50;52.10
43049;DHT22;28673;44.412;11.918;2023-04-06T14:59:20;21.20;51.10
43049;DHT22;28673;44.412;11.918;2023-04-06T15:01:45;20.90;52.60
43049;DHT22;28673;44.412;11.918;2023-04-06T15:04:11;20.70;52.80
43049;DHT22;28673;44.412;11.918;2023-04-06T15:06:37;20.40;52.50
43049;DHT22;28673;44.412;11.918;2023-04-06T15:09:03;20.30;52.10
43049;DHT22;28673;44.412;11.918;2023-04-06T15:11:29;20.10;52.00
43049;DHT22;28673;44.412;11.918;2023-04-06T15:13:59;19.90;52.20
43049;DHT22;28673;44.412;11.918;2023-04-06T15:16:25;19.80;51.60
43049;DHT22;28673;44.412;11.918;2023-04-06T15:18:51;19.80;52.10
43049;DHT22;28673;44.412;11.918;2023-04-06T15:21:17;19.70;53.40
43049;DHT22;28673;44.412;11.918;2023-04-06T15:23:45;19.60;52.10
43049;DHT22;28673;44.412;11.918;2023-04-06T15:26:11;19.60;53.10
43049;DHT22;28673;44.412;11.918;2023-04-06T15:28:37;19.50;54.20
43049;DHT22;28673;44.412;11.918;2023-04-06T15:31:02;19.40;52.70
43049;DHT22;28673;44.412;11.918;2023-04-06T15:33:31;19.40;52.30
43049;DHT22;28673;44.412;11.918;2023-04-06T15:35:57;19.40;53.10